Time;durP1;ratioP1;P1;durP2;ratioP2;P2;SDS_P1;SDS_P2;PMS_P1;PMS_P2;Temp;Humidity;BMP_temperature;BMP_pressure;BME280_temperature;BME280_humidity;BME280_pressure;Samples;Min_cycle;Max_cycle;Signal;HPM_P1;HPM_P2
2022/03/13 00:02:21;;;;;;;19.27;10.95;;;;;;;;;;5095668;28;20167;-64
2022/03/13 00:04:51;;;;;;;19.20;10.48;;;;;;;;;;5097432;28;20163;-64
2022/03/13 00:07:25;;;;;;;19.50;10.02;;;;;;;;;;5097789;28;20182;-65
2022/03/13 00:09:51;;;;;;;19.23;10.50;;;;;;;;;;5097677;28;20171;-64
2022/03/13 00:12:24;;;;;;;16.42;10.38;;;;;;;;;;5097362;28;20174;-65
2022/03/13 00:14:51;;;;;;;17.15;10.85;;;;;;;;;;5097462;28;20211;-64
2022/03/13 00:17:17;;;;;;;18.10;10.18;;;;;;;;;;5097360;28;20170;-65
2022/03/13 00:19:44;;;;;;;16.40;9.93;;;;;;;;;;5097516;28;20171;-65
2022/03/13 00:22:10;;;;;;;21.40;11.73;;;;;;;;;;5097520;28;20159;-64
2022/03/13 00:24:36;;;;;;;20.85;11.45;;;;;;;;;;5097331;28;20175;-64
2022/03/13 00:27:02;;;;;;;19.70;10.27;;;;;;;;;;5097103;28;20178;-64
2022/03/13 00:29:29;;;;;;;17.70;10.70;;;;;;;;;;5097257;28;20611;-65
2022/03/13 00:31:55;;;;;;;18.00;10.45;;;;;;;;;;5097191;28;20202;-64
2022/03/13 00:34:20;;;;;;;16.50;10.13;;;;;;;;;;5096764;28;20191;-64
2022/03/13 00:36:46;;;;;;;17.48;9.82;;;;;;;;;;5096983;28;20167;-64
2022/03/13 00:39:12;;;;;;;16.95;10.18;;;;;;;;;;5096842;28;20168;-65
2022/03/13 00:41:38;;;;;;;22.05;10.70;;;;;;;;;;5096944;28;20250;-65
2022/03/13 00:44:07;;;;;;;14.40;9.63;;;;;;;;;;5096763;28;20436;-65
2022/03/13 00:46:34;;;;;;;19.60;10.50;;;;;;;;;;5096881;28;20239;-65
2022/03/13 00:49:00;;;;;;;15.40;9.45;;;;;;;;;;5096963;28;20167;-64
2022/03/13 00:51:26;;;;;;;17.38;9.85;;;;;;;;;;5096884;28;20171;-65
2022/03/13 00:53:52;;;;;;;19.08;10.18;;;;;;;;;;5096606;28;20703;-64
2022/03/13 00:56:18;;;;;;;19.30;10.00;;;;;;;;;;5096940;28;20164;-65
2022/03/13 00:58:44;;;;;;;18.52;9.65;;;;;;;;;;5096466;28;20509;-64
2022/03/13 01:01:13;;;;;;;19.60;10.20;;;;;;;;;;5096506;28;20179;-65
2022/03/13 01:03:39;;;;;;;21.08;10.73;;;;;;;;;;5096812;28;20599;-64
2022/03/13 01:06:06;;;;;;;23.50;10.45;;;;;;;;;;5096597;28;20176;-64
2022/03/13 01:08:32;;;;;;;16.95;10.02;;;;;;;;;;5096601;28;20211;-63
2022/03/13 01:10:59;;;;;;;17.13;9.98;;;;;;;;;;5096480;28;20172;-64
2022/03/13 01:13:24;;;;;;;17.77;10.30;;;;;;;;;;5095920;28;20342;-64
2022/03/13 01:15:55;;;;;;;19.50;10.60;;;;;;;;;;5096430;28;20625;-65
2022/03/13 01:18:21;;;;;;;15.88;9.75;;;;;;;;;;5096559;28;20156;-63
2022/03/13 01:20:48;;;;;;;20.77;11.30;;;;;;;;;;5096653;28;20163;-63
2022/03/13 01:23:16;;;;;;;15.52;9.32;;;;;;;;;;5096854;28;20666;-65
2022/03/13 01:25:42;;;;;;;13.93;9.30;;;;;;;;;;5096686;28;20178;-65
2022/03/13 01:28:08;;;;;;;16.17;9.85;;;;;;;;;;5096649;28;20252;-66
2022/03/13 01:30:34;;;;;;;20.58;10.13;;;;;;;;;;5096147;28;20174;-64
2022/03/13 01:33:00;;;;;;;17.85;9.48;;;;;;;;;;5096633;28;20172;-64
2022/03/13 01:35:26;;;;;;;20.80;10.48;;;;;;;;;;5096545;28;20174;-64
2022/03/13 01:37:53;;;;;;;19.58;10.65;;;;;;;;;;5096382;28;20518;-63
2022/03/13 01:40:20;;;;;;;20.83;10.73;;;;;;;;;;5096342;28;20155;-64
2022/03/13 01:42:48;;;;;;;20.40;11.13;;;;;;;;;;5096138;28;20850;-64
2022/03/13 01:45:15;;;;;;;22.52;10.45;;;;;;;;;;5096107;28;20222;-65
2022/03/13 01:47:41;;;;;;;17.17;10.75;;;;;;;;;;5096062;28;20326;-65
2022/03/13 01:50:09;;;;;;;20.52;10.50;;;;;;;;;;5096590;28;20152;-63
2022/03/13 01:52:35;;;;;;;15.40;10.27;;;;;;;;;;5096281;28;20168;-65
2022/03/13 01:55:02;;;;;;;22.27;11.15;;;;;;;;;;5095745;28;20282;-65
2022/03/13 01:57:28;;;;;;;16.65;9.45;;;;;;;;;;5095890;28;20167;-64
2022/03/13 01:59:56;;;;;;;18.13;10.30;;;;;;;;;;5095650;28;20189;-63
2022/03/13 02:02:23;;;;;;;18.02;9.43;;;;;;;;;;5095967;28;20214;-65
2022/03/13 02:04:53;;;;;;;20.58;10.63;;;;;;;;;;5095789;28;20190;-64
2022/03/13 02:07:21;;;;;;;19.25;10.80;;;;;;;;;;5095668;28;20207;-65
2022/03/13 02:09:48;;;;;;;21.20;11.18;;;;;;;;;;5095661;28;20613;-65
2022/03/13 02:12:14;;;;;;;17.17;10.00;;;;;;;;;;5095635;28;20171;-65
2022/03/13 02:14:40;;;;;;;20.42;11.07;;;;;;;;;;5095457;28;20198;-65
2022/03/13 02:17:06;;;;;;;18.63;10.80;;;;;;;;;;5096192;28;20163;-65
2022/03/13 02:19:32;;;;;;;17.05;10.32;;;;;;;;;;5095451;28;20501;-63
2022/03/13 02:21:59;;;;;;;18.90;11.40;;;;;;;;;;5095778;28;20626;-65
2022/03/13 02:24:26;;;;;;;16.38;10.43;;;;;;;;;;5094569;28;20167;-64
2022/03/13 02:27:00;;;;;;;18.67;11.05;;;;;;;;;;5095473;28;20167;-65
2022/03/13 02:29:26;;;;;;;18.20;10.05;;;;;;;;;;5095327;28;20170;-65
2022/03/13 02:31:53;;;;;;;20.10;11.45;;;;;;;;;;5095576;28;20549;-64
2022/03/13 02:34:19;;;;;;;20.85;10.68;;;;;;;;;;5095123;28;20187;-64
2022/03/13 02:36:51;;;;;;;19.73;10.77;;;;;;;;;;5100234;28;20193;-65
2022/03/13 02:39:17;;;;;;;17.30;10.25;;;;;;;;;;5104764;28;20164;-64
2022/03/13 02:41:43;;;;;;;19.48;10.90;;;;;;;;;;5095253;28;20164;-65
2022/03/13 02:44:11;;;;;;;17.40;10.18;;;;;;;;;;5094857;28;20607;-64
2022/03/13 02:46:46;;;;;;;19.63;11.00;;;;;;;;;;5095092;28;20163;-65
2022/03/13 02:49:12;;;;;;;17.27;10.30;;;;;;;;;;5094940;28;20166;-65
2022/03/13 02:51:38;;;;;;;17.85;10.23;;;;;;;;;;5094586;28;20504;-65
2022/03/13 02:54:04;;;;;;;20.30;10.30;;;;;;;;;;5094132;28;20191;-65
2022/03/13 02:56:30;;;;;;;18.67;10.02;;;;;;;;;;5094193;28;20172;-65
2022/03/13 02:58:56;;;;;;;18.92;10.60;;;;;;;;;;5094168;28;20164;-65
2022/03/13 03:01:22;;;;;;;19.50;10.27;;;;;;;;;;5094120;28;20262;-65
2022/03/13 03:03:49;;;;;;;15.07;9.40;;;;;;;;;;5094237;28;20167;-64
2022/03/13 03:06:15;;;;;;;20.80;10.40;;;;;;;;;;5094570;28;20181;-65
2022/03/13 03:08:41;;;;;;;15.38;9.15;;;;;;;;;;5094230;28;20258;-63
2022/03/13 03:11:07;;;;;;;18.33;10.07;;;;;;;;;;5094273;28;20167;-64
2022/03/13 03:13:34;;;;;;;16.88;9.55;;;;;;;;;;5094121;28;20311;-64
2022/03/13 03:16:00;;;;;;;19.60;10.57;;;;;;;;;;5094330;28;20545;-65
2022/03/13 03:18:26;;;;;;;17.08;10.30;;;;;;;;;;5094267;28;20156;-64
2022/03/13 03:20:52;;;;;;;19.88;10.48;;;;;;;;;;5094101;28;20164;-65
2022/03/13 03:23:17;;;;;;;16.65;9.32;;;;;;;;;;5093774;28;20626;-65
2022/03/13 03:25:43;;;;;;;17.50;10.30;;;;;;;;;;5093740;28;20190;-65
2022/03/13 03:28:10;;;;;;;17.98;9.80;;;;;;;;;;5094015;28;20483;-65
2022/03/13 03:30:36;;;;;;;19.27;10.32;;;;;;;;;;5094234;28;20167;-65
2022/03/13 03:33:03;;;;;;;17.15;9.20;;;;;;;;;;5093681;28;20174;-65
2022/03/13 03:35:29;;;;;;;16.83;9.98;;;;;;;;;;5093923;28;20178;-65
2022/03/13 03:37:55;;;;;;;20.33;10.05;;;;;;;;;;5094090;28;20246;-65
2022/03/13 03:40:22;;;;;;;18.92;9.27;;;;;;;;;;5093857;28;20202;-65
2022/03/13 03:42:48;;;;;;;17.83;10.27;;;;;;;;;;5093781;28;20210;-65
2022/03/13 03:45:17;;;;;;;15.82;9.60;;;;;;;;;;5094003;28;20164;-65
2022/03/13 03:47:42;;;;;;;18.75;10.77;;;;;;;;;;5093634;28;20212;-65
2022/03/13 03:50:09;;;;;;;16.77;9.82;;;;;;;;;;5093668;28;20277;-65
2022/03/13 03:52:35;;;;;;;17.45;10.27;;;;;;;;;;5093711;28;20182;-65
2022/03/13 03:55:01;;;;;;;17.25;9.82;;;;;;;;;;5093408;28;20191;-65
2022/03/13 03:57:27;;;;;;;17.27;10.00;;;;;;;;;;5093343;28;20167;-63
2022/03/13 03:59:53;;;;;;;20.27;10.38;;;;;;;;;;5093348;28;20614;-65
2022/03/13 04:02:19;;;;;;;19.63;10.45;;;;;;;;;;5093413;28;20152;-63
2022/03/13 04:04:45;;;;;;;18.50;10.23;;;;;;;;;;5093349;28;20171;-64
2022/03/13 04:07:11;;;;;;;20.67;10.60;;;;;;;;;;5093229;28;20254;-64
2022/03/13 04:09:36;;;;;;;19.15;10.88;;;;;;;;;;5093274;28;20232;-64
2022/03/13 04:12:07;;;;;;;16.73;10.05;;;;;;;;;;5093483;28;20167;-64
2022/03/13 04:14:33;;;;;;;22.83;10.88;;;;;;;;;;5093250;28;20171;-65
2022/03/13 04:16:59;;;;;;;20.92;10.65;;;;;;;;;;5093252;28;20463;-64
2022/03/13 04:19:26;;;;;;;19.02;10.70;;;;;;;;;;5093209;28;20168;-64
2022/03/13 04:21:52;;;;;;;20.23;9.90;;;;;;;;;;5093481;28;20167;-66
2022/03/13 04:24:18;;;;;;;21.70;11.13;;;;;;;;;;5093450;28;20259;-64
2022/03/13 04:26:44;;;;;;;17.38;9.82;;;;;;;;;;5093313;28;20175;-64
2022/03/13 04:29:10;;;;;;;17.25;10.48;;;;;;;;;;5093278;28;20198;-63
2022/03/13 04:31:40;;;;;;;17.70;9.88;;;;;;;;;;5093323;28;20174;-63
2022/03/13 04:34:06;;;;;;;19.25;10.50;;;;;;;;;;5093888;28;20192;-63
2022/03/13 04:36:33;;;;;;;21.00;10.70;;;;;;;;;;5093848;28;20182;-61
2022/03/13 04:38:59;;;;;;;20.95;10.82;;;;;;;;;;5093366;28;20168;-65
2022/03/13 04:41:25;;;;;;;18.85;10.57;;;;;;;;;;5092925;28;20254;-65
2022/03/13 04:43:53;;;;;;;18.55;10.82;;;;;;;;;;5093014;28;20178;-63
2022/03/13 04:46:18;;;;;;;17.02;9.85;;;;;;;;;;5093311;28;20479;-65
2022/03/13 04:48:44;;;;;;;16.75;9.85;;;;;;;;;;5095263;28;20178;-64
2022/03/13 04:51:10;;;;;;;19.05;9.80;;;;;;;;;;5096809;28;20170;-66
2022/03/13 04:53:36;;;;;;;17.50;10.57;;;;;;;;;;5096579;28;20195;-63
2022/03/13 04:56:03;;;;;;;20.65;10.30;;;;;;;;;;5096621;28;20645;-65
2022/03/13 04:58:28;;;;;;;21.17;10.98;;;;;;;;;;5096631;28;20512;-65
2022/03/13 05:00:54;;;;;;;17.75;10.13;;;;;;;;;;5096493;28;20190;-65
2022/03/13 05:03:20;;;;;;;19.65;10.95;;;;;;;;;;5096332;28;20174;-64
2022/03/13 05:05:47;;;;;;;18.00;10.45;;;;;;;;;;5096459;28;20170;-64
2022/03/13 05:08:16;;;;;;;20.92;10.75;;;;;;;;;;5096370;28;20167;-64
2022/03/13 05:10:43;;;;;;;18.35;10.00;;;;;;;;;;5096613;28;20290;-64
2022/03/13 05:13:11;;;;;;;21.92;11.20;;;;;;;;;;5096596;28;20172;-64
2022/03/13 05:15:37;;;;;;;19.10;10.57;;;;;;;;;;5096561;28;20387;-64
2022/03/13 05:18:03;;;;;;;20.35;10.68;;;;;;;;;;5096154;28;20310;-64
2022/03/13 05:20:31;;;;;;;16.30;9.63;;;;;;;;;;5096454;28;20167;-64
2022/03/13 05:22:57;;;;;;;20.48;10.43;;;;;;;;;;5096656;28;20588;-65
2022/03/13 05:25:23;;;;;;;16.38;10.23;;;;;;;;;;5096562;28;20172;-64
2022/03/13 05:27:50;;;;;;;17.35;9.82;;;;;;;;;;5095946;28;20679;-64
2022/03/13 05:30:16;;;;;;;18.40;10.60;;;;;;;;;;5096209;28;20258;-64
2022/03/13 05:32:42;;;;;;;18.02;10.55;;;;;;;;;;5095906;28;20199;-64
2022/03/13 05:35:10;;;;;;;20.25;9.75;;;;;;;;;;5095770;28;20266;-65
2022/03/13 05:37:36;;;;;;;22.27;10.95;;;;;;;;;;5095834;28;20156;-65
2022/03/13 05:40:02;;;;;;;16.45;9.85;;;;;;;;;;5095935;28;20237;-65
2022/03/13 05:42:28;;;;;;;16.67;9.82;;;;;;;;;;5095653;28;20484;-65
2022/03/13 05:44:54;;;;;;;18.48;10.25;;;;;;;;;;5095971;28;20174;-65
2022/03/13 05:47:21;;;;;;;17.58;9.15;;;;;;;;;;5095727;28;20178;-65
2022/03/13 05:49:48;;;;;;;19.67;10.38;;;;;;;;;;5096360;28;20654;-64
2022/03/13 05:52:15;;;;;;;20.58;9.75;;;;;;;;;;5096269;28;20218;-65
2022/03/13 05:54:41;;;;;;;16.80;9.90;;;;;;;;;;5095830;28;20191;-65
2022/03/13 05:57:09;;;;;;;18.73;9.55;;;;;;;;;;5095583;28;20519;-65
2022/03/13 05:59:35;;;;;;;22.00;10.93;;;;;;;;;;5094797;28;20167;-65
2022/03/13 06:02:04;;;;;;;17.25;10.35;;;;;;;;;;5095179;28;20599;-65
2022/03/13 06:04:32;;;;;;;18.77;9.48;;;;;;;;;;5095152;28;20579;-65
2022/03/13 06:06:57;;;;;;;19.85;10.07;;;;;;;;;;5095515;28;20176;-65
2022/03/13 06:09:23;;;;;;;17.02;9.80;;;;;;;;;;5095097;28;20179;-65
2022/03/13 06:11:49;;;;;;;18.23;9.80;;;;;;;;;;5095436;28;20595;-65
2022/03/13 06:14:16;;;;;;;19.45;10.00;;;;;;;;;;5095001;28;20245;-65
2022/03/13 06:16:42;;;;;;;17.48;9.65;;;;;;;;;;5095250;28;20163;-65
2022/03/13 06:19:07;;;;;;;16.20;9.85;;;;;;;;;;5094940;28;20229;-65
2022/03/13 06:21:33;;;;;;;18.55;10.60;;;;;;;;;;5094803;28;20167;-64
2022/03/13 06:23:59;;;;;;;20.00;10.75;;;;;;;;;;5094729;28;20171;-65
2022/03/13 06:26:25;;;;;;;17.23;9.90;;;;;;;;;;5094844;28;20622;-64
2022/03/13 06:28:51;;;;;;;18.85;9.85;;;;;;;;;;5094947;28;20202;-65
2022/03/13 06:31:18;;;;;;;19.02;9.80;;;;;;;;;;5093677;28;20159;-65
2022/03/13 06:33:44;;;;;;;18.58;10.27;;;;;;;;;;5094426;28;20600;-64
2022/03/13 06:36:11;;;;;;;15.60;10.05;;;;;;;;;;5094969;28;20178;-65
2022/03/13 06:38:37;;;;;;;18.30;9.43;;;;;;;;;;5094573;28;20167;-64
2022/03/13 06:41:03;;;;;;;18.52;10.35;;;;;;;;;;5094512;28;20163;-65
2022/03/13 06:43:29;;;;;;;18.75;10.25;;;;;;;;;;5094651;28;20193;-64
2022/03/13 06:45:55;;;;;;;20.50;10.48;;;;;;;;;;5094681;28;20595;-65
2022/03/13 06:48:21;;;;;;;17.60;10.23;;;;;;;;;;5094533;28;20503;-64
2022/03/13 06:50:48;;;;;;;18.67;10.75;;;;;;;;;;5094604;28;20187;-65
2022/03/13 06:53:14;;;;;;;18.70;10.15;;;;;;;;;;5094432;28;20194;-65
2022/03/13 06:55:40;;;;;;;19.92;9.85;;;;;;;;;;5094374;28;20498;-64
2022/03/13 06:58:06;;;;;;;18.90;10.07;;;;;;;;;;5094486;28;20171;-64
2022/03/13 07:00:32;;;;;;;19.13;10.32;;;;;;;;;;5094116;28;20175;-65
2022/03/13 07:02:58;;;;;;;18.73;9.80;;;;;;;;;;5094462;28;20176;-65
2022/03/13 07:05:24;;;;;;;18.90;10.50;;;;;;;;;;5094166;28;20168;-65
2022/03/13 07:07:54;;;;;;;16.77;9.13;;;;;;;;;;5094229;28;20611;-65
2022/03/13 07:10:20;;;;;;;17.20;10.52;;;;;;;;;;5093870;28;20163;-65
2022/03/13 07:12:47;;;;;;;18.05;9.65;;;;;;;;;;5093829;28;20250;-65
2022/03/13 07:15:14;;;;;;;17.50;9.82;;;;;;;;;;5094111;28;20203;-65
2022/03/13 07:17:41;;;;;;;19.77;10.05;;;;;;;;;;5094163;28;20250;-64
2022/03/13 07:20:07;;;;;;;14.85;9.38;;;;;;;;;;5094260;28;20503;-65
2022/03/13 07:22:33;;;;;;;19.63;10.85;;;;;;;;;;5093843;28;20164;-65
2022/03/13 07:24:59;;;;;;;16.42;10.75;;;;;;;;;;5093878;28;20624;-65
2022/03/13 07:27:25;;;;;;;18.45;10.10;;;;;;;;;;5093841;28;20171;-65
2022/03/13 07:29:51;;;;;;;17.33;9.85;;;;;;;;;;5093832;28;20171;-64
2022/03/13 07:32:17;;;;;;;15.52;9.50;;;;;;;;;;5093765;28;20167;-64
2022/03/13 07:34:43;;;;;;;15.25;9.30;;;;;;;;;;5093624;28;20341;-64
2022/03/13 07:37:12;;;;;;;21.02;10.73;;;;;;;;;;5094020;28;20642;-64
2022/03/13 07:39:41;;;;;;;14.85;9.48;;;;;;;;;;5093472;28;20168;-65
2022/03/13 07:42:08;;;;;;;17.85;10.77;;;;;;;;;;5093624;28;20163;-65
2022/03/13 07:44:34;;;;;;;18.10;10.65;;;;;;;;;;5093859;28;20198;-64
2022/03/13 07:47:00;;;;;;;16.55;9.48;;;;;;;;;;5093637;28;20202;-64
2022/03/13 07:49:26;;;;;;;14.07;9.13;;;;;;;;;;5093500;28;20316;-65
2022/03/13 07:51:52;;;;;;;15.30;9.02;;;;;;;;;;5093548;28;20193;-64
2022/03/13 07:54:20;;;;;;;14.00;8.65;;;;;;;;;;5093161;28;20626;-65
2022/03/13 07:56:46;;;;;;;17.08;8.90;;;;;;;;;;5093600;28;20221;-64
2022/03/13 07:59:12;;;;;;;18.02;9.90;;;;;;;;;;5093450;28;20520;-64
2022/03/13 08:01:38;;;;;;;16.42;9.15;;;;;;;;;;5093598;28;20172;-63
2022/03/13 08:04:05;;;;;;;15.00;9.30;;;;;;;;;;5093639;28;20167;-64
2022/03/13 08:06:39;;;;;;;16.58;9.70;;;;;;;;;;5094215;28;20225;-64
2022/03/13 08:09:05;;;;;;;17.40;9.15;;;;;;;;;;5093902;28;20159;-64
2022/03/13 08:11:34;;;;;;;14.05;8.48;;;;;;;;;;5094252;28;20171;-63
2022/03/13 08:13:59;;;;;;;15.50;9.10;;;;;;;;;;5093702;28;20507;-64
2022/03/13 08:16:27;;;;;;;14.38;9.10;;;;;;;;;;5093916;28;20155;-64
2022/03/13 08:18:53;;;;;;;13.52;8.82;;;;;;;;;;5094738;28;20296;-63
2022/03/13 08:21:18;;;;;;;13.80;8.27;;;;;;;;;;5095520;28;20200;-64
2022/03/13 08:23:44;;;;;;;13.98;8.65;;;;;;;;;;5105682;28;20654;-65
2022/03/13 08:26:11;;;;;;;13.10;8.88;;;;;;;;;;5109365;28;20163;-65
2022/03/13 08:28:38;;;;;;;16.08;8.85;;;;;;;;;;5109537;28;20176;-65
2022/03/13 08:31:03;;;;;;;14.20;8.95;;;;;;;;;;5110211;28;20172;-64
2022/03/13 08:33:30;;;;;;;17.13;9.32;;;;;;;;;;5104623;28;20347;-64
2022/03/13 08:35:55;;;;;;;15.52;9.45;;;;;;;;;;5097527;28;20656;-64
2022/03/13 08:38:21;;;;;;;12.85;8.40;;;;;;;;;;5097535;28;20155;-64
2022/03/13 08:40:47;;;;;;;16.48;9.02;;;;;;;;;;5097158;28;20491;-64
2022/03/13 08:43:13;;;;;;;14.85;8.77;;;;;;;;;;5097272;28;20171;-64
2022/03/13 08:45:39;;;;;;;15.45;8.68;;;;;;;;;;5097541;28;20259;-64
2022/03/13 08:48:05;;;;;;;14.52;8.70;;;;;;;;;;5097190;28;20199;-64
2022/03/13 08:50:32;;;;;;;13.05;8.43;;;;;;;;;;5097195;28;20247;-64
2022/03/13 08:52:58;;;;;;;16.42;8.75;;;;;;;;;;5097083;28;20171;-64
2022/03/13 08:55:24;;;;;;;15.85;8.85;;;;;;;;;;5096878;28;20202;-64
2022/03/13 08:57:50;;;;;;;13.95;8.52;;;;;;;;;;5097430;28;20163;-64
2022/03/13 09:00:17;;;;;;;15.27;8.75;;;;;;;;;;5097553;28;20197;-64
2022/03/13 09:02:44;;;;;;;14.00;8.63;;;;;;;;;;5100306;28;20626;-65
2022/03/13 09:05:10;;;;;;;16.27;9.13;;;;;;;;;;5103727;28;20170;-65
2022/03/13 09:07:36;;;;;;;13.63;8.65;;;;;;;;;;5103678;28;20168;-65
2022/03/13 09:10:03;;;;;;;12.68;7.82;;;;;;;;;;5103408;28;20217;-64
2022/03/13 09:12:33;;;;;;;14.27;9.02;;;;;;;;;;5103527;28;20168;-64
2022/03/13 09:14:59;;;;;;;14.38;8.70;;;;;;;;;;5104208;28;20214;-65
2022/03/13 09:17:25;;;;;;;14.82;8.60;;;;;;;;;;5104875;28;20190;-65
2022/03/13 09:19:51;;;;;;;15.32;8.98;;;;;;;;;;5104520;28;20160;-65
2022/03/13 09:22:18;;;;;;;13.80;8.57;;;;;;;;;;5105508;28;20544;-65
2022/03/13 09:24:45;;;;;;;15.13;8.55;;;;;;;;;;5105742;28;20171;-65
2022/03/13 09:27:11;;;;;;;16.23;8.50;;;;;;;;;;5103842;28;20176;-65
2022/03/13 09:29:37;;;;;;;14.35;8.27;;;;;;;;;;5104477;28;20167;-64
2022/03/13 09:32:04;;;;;;;10.05;7.78;;;;;;;;;;5107090;28;20175;-65
2022/03/13 09:34:31;;;;;;;12.07;7.97;;;;;;;;;;5104035;28;20206;-65
2022/03/13 09:36:57;;;;;;;14.18;7.50;;;;;;;;;;5096380;28;20172;-64
2022/03/13 09:39:23;;;;;;;11.27;7.57;;;;;;;;;;5096457;28;20171;-65
2022/03/13 09:41:49;;;;;;;11.90;7.95;;;;;;;;;;5096038;28;20170;-65
2022/03/13 09:44:15;;;;;;;12.18;7.97;;;;;;;;;;5096216;28;20167;-65
2022/03/13 09:46:41;;;;;;;11.15;7.53;;;;;;;;;;5096061;28;20193;-64
2022/03/13 09:49:07;;;;;;;14.93;7.63;;;;;;;;;;5096041;28;20191;-64
2022/03/13 09:51:33;;;;;;;10.65;7.00;;;;;;;;;;5095783;28;20182;-64
2022/03/13 09:53:59;;;;;;;11.10;7.32;;;;;;;;;;5095689;28;20236;-63
2022/03/13 09:56:25;;;;;;;10.77;7.60;;;;;;;;;;5095814;28;20168;-65
2022/03/13 09:58:51;;;;;;;11.18;7.10;;;;;;;;;;5096175;28;20172;-65
2022/03/13 10:01:17;;;;;;;9.65;6.82;;;;;;;;;;5095480;28;20610;-65
2022/03/13 10:03:43;;;;;;;9.73;6.82;;;;;;;;;;5095816;28;20508;-65
2022/03/13 10:06:09;;;;;;;11.57;7.15;;;;;;;;;;5095639;28;20645;-65
2022/03/13 10:08:35;;;;;;;10.88;7.28;;;;;;;;;;5095728;28;20175;-65
2022/03/13 10:11:04;;;;;;;10.57;7.63;;;;;;;;;;5095349;28;20477;-65
2022/03/13 10:13:35;;;;;;;10.68;7.18;;;;;;;;;;5094209;28;20195;-65
2022/03/13 10:16:02;;;;;;;10.00;6.82;;;;;;;;;;5095765;28;20262;-65
2022/03/13 10:18:28;;;;;;;9.55;6.75;;;;;;;;;;5095982;28;20159;-65
2022/03/13 10:20:54;;;;;;;10.57;7.28;;;;;;;;;;5095252;28;20174;-64
2022/03/13 10:23:22;;;;;;;10.20;7.03;;;;;;;;;;5096583;28;20174;-65
2022/03/13 10:25:51;;;;;;;10.82;7.55;;;;;;;;;;5095711;28;20171;-66
2022/03/13 10:28:25;;;;;;;10.77;7.13;;;;;;;;;;5095030;28;20166;-64
2022/03/13 10:30:59;;;;;;;15.40;7.53;;;;;;;;;;5094936;28;20170;-65
2022/03/13 10:33:29;;;;;;;11.20;7.43;;;;;;;;;;5094875;28;20163;-64
2022/03/13 10:36:08;;;;;;;11.05;7.22;;;;;;;;;;5094958;28;20271;-64
2022/03/13 10:38:35;;;;;;;11.93;7.57;;;;;;;;;;5095112;28;20267;-64
2022/03/13 10:41:01;;;;;;;12.93;7.97;;;;;;;;;;5095202;28;20160;-63
2022/03/13 10:43:29;;;;;;;12.93;8.32;;;;;;;;;;5094961;28;20486;-65
2022/03/13 10:45:56;;;;;;;12.73;7.03;;;;;;;;;;5094637;28;20596;-64
2022/03/13 10:48:28;;;;;;;10.85;7.63;;;;;;;;;;5094628;28;20160;-64
2022/03/13 10:50:54;;;;;;;11.02;7.60;;;;;;;;;;5094562;28;20156;-64
2022/03/13 10:53:21;;;;;;;12.85;7.95;;;;;;;;;;5093366;28;20166;-64
2022/03/13 10:56:00;;;;;;;12.93;9.00;;;;;;;;;;5094353;28;20465;-64
2022/03/13 10:58:30;;;;;;;12.73;8.60;;;;;;;;;;5094305;28;20177;-64
2022/03/13 11:01:23;;;;;;;11.95;8.05;;;;;;;;;;5094182;28;20179;-64
2022/03/13 11:03:56;;;;;;;11.25;8.05;;;;;;;;;;5093276;28;20518;-64
2022/03/13 11:06:22;;;;;;;13.27;8.90;;;;;;;;;;5094275;28;20171;-64
2022/03/13 11:08:51;;;;;;;13.25;8.55;;;;;;;;;;5094410;28;20303;-64
2022/03/13 11:11:18;;;;;;;13.50;7.97;;;;;;;;;;5094365;28;20171;-64
2022/03/13 11:13:46;;;;;;;11.95;8.05;;;;;;;;;;5094307;28;20210;-64
2022/03/13 11:16:17;;;;;;;11.38;7.85;;;;;;;;;;5094346;28;20172;-64
2022/03/13 11:18:43;;;;;;;11.57;7.80;;;;;;;;;;5094316;28;20167;-64
2022/03/13 11:21:09;;;;;;;11.52;7.57;;;;;;;;;;5094222;28;20599;-64
2022/03/13 11:23:36;;;;;;;13.18;7.88;;;;;;;;;;5094311;28;20164;-64
2022/03/13 11:26:02;;;;;;;14.55;7.55;;;;;;;;;;5094250;28;20194;-64
2022/03/13 11:28:29;;;;;;;11.75;7.82;;;;;;;;;;5093940;28;20171;-64
2022/03/13 11:30:56;;;;;;;10.88;7.35;;;;;;;;;;5094058;28;20159;-64
2022/03/13 11:33:32;;;;;;;11.13;7.15;;;;;;;;;;5094354;28;20175;-64
2022/03/13 11:36:17;;;;;;;11.15;7.28;;;;;;;;;;5094228;28;20159;-64
2022/03/13 11:38:59;;;;;;;10.45;7.07;;;;;;;;;;5093869;28;20440;-64
2022/03/13 11:41:55;;;;;;;14.18;7.75;;;;;;;;;;5093864;28;20163;-64
2022/03/13 11:44:21;;;;;;;11.10;7.28;;;;;;;;;;5089129;28;20523;-63
2022/03/13 11:46:48;;;;;;;14.45;7.28;;;;;;;;;;5093599;28;20167;-63
2022/03/13 11:49:34;;;;;;;11.43;7.00;;;;;;;;;;5093850;28;20195;-63
2022/03/13 11:52:12;;;;;;;9.88;6.80;;;;;;;;;;5092613;28;20186;-63
2022/03/13 11:54:49;;;;;;;14.23;7.25;;;;;;;;;;5093794;28;20206;-64
2022/03/13 11:57:16;;;;;;;11.10;7.13;;;;;;;;;;5093783;28;20254;-64
2022/03/13 11:59:49;;;;;;;8.80;6.13;;;;;;;;;;5098142;28;20159;-64
2022/03/13 12:02:34;;;;;;;8.55;6.20;;;;;;;;;;5098240;28;20189;-64
2022/03/13 12:05:19;;;;;;;9.75;6.28;;;;;;;;;;5097774;28;20167;-64
2022/03/13 12:07:54;;;;;;;8.60;6.10;;;;;;;;;;5097962;28;20217;-64
2022/03/13 12:10:30;;;;;;;9.07;6.90;;;;;;;;;;5097986;28;20527;-64
2022/03/13 12:13:03;;;;;;;9.70;6.35;;;;;;;;;;5097661;28;20206;-64
2022/03/13 12:15:29;;;;;;;9.10;6.28;;;;;;;;;;5098108;28;20199;-63
2022/03/13 12:17:57;;;;;;;7.50;5.72;;;;;;;;;;5097687;28;20599;-64
2022/03/13 12:20:28;;;;;;;11.07;6.35;;;;;;;;;;5097694;28;20670;-63
2022/03/13 12:22:54;;;;;;;9.10;6.38;;;;;;;;;;5097571;28;20171;-63
2022/03/13 12:25:38;;;;;;;9.70;6.20;;;;;;;;;;5097643;28;20190;-64
2022/03/13 12:28:05;;;;;;;8.23;5.72;;;;;;;;;;5096867;28;20156;-64
2022/03/13 12:30:35;;;;;;;8.32;5.80;;;;;;;;;;5097498;28;20305;-64
2022/03/13 12:33:02;;;;;;;9.45;5.97;;;;;;;;;;5097712;28;20167;-64
2022/03/13 12:35:28;;;;;;;7.78;5.40;;;;;;;;;;5100575;28;20191;-64
2022/03/13 12:38:00;;;;;;;7.40;5.47;;;;;;;;;;5097186;28;20224;-64
2022/03/13 12:40:26;;;;;;;8.32;5.70;;;;;;;;;;5097129;28;20274;-65
2022/03/13 12:42:53;;;;;;;9.55;5.80;;;;;;;;;;5097231;28;20163;-64
2022/03/13 12:45:20;;;;;;;7.57;5.72;;;;;;;;;;5097000;28;20175;-64
2022/03/13 12:47:49;;;;;;;8.48;5.72;;;;;;;;;;5097026;28;20164;-64
2022/03/13 12:50:16;;;;;;;9.65;5.97;;;;;;;;;;5097419;28;20246;-62
2022/03/13 12:52:43;;;;;;;8.77;4.93;;;;;;;;;;5096557;28;20210;-64
2022/03/13 12:55:09;;;;;;;7.00;4.70;;;;;;;;;;5096473;28;20226;-64
2022/03/13 12:57:36;;;;;;;8.50;4.78;;;;;;;;;;5096596;28;20647;-63
2022/03/13 13:00:04;;;;;;;5.72;4.30;;;;;;;;;;5097139;28;20211;-64
2022/03/13 13:02:32;;;;;;;8.88;4.88;;;;;;;;;;5096756;28;20239;-64
2022/03/13 13:05:00;;;;;;;7.28;5.18;;;;;;;;;;5096786;28;20221;-64
2022/03/13 13:07:27;;;;;;;9.48;5.45;;;;;;;;;;5096647;28;20246;-64
2022/03/13 13:09:53;;;;;;;7.47;5.18;;;;;;;;;;5096162;28;20167;-63
2022/03/13 13:12:22;;;;;;;7.95;5.00;;;;;;;;;;5096751;28;20516;-62
2022/03/13 13:14:51;;;;;;;6.50;4.60;;;;;;;;;;5096522;28;20211;-64
2022/03/13 13:17:18;;;;;;;7.35;5.18;;;;;;;;;;5096179;28;20499;-64
2022/03/13 13:19:45;;;;;;;9.00;5.25;;;;;;;;;;5096291;28;20163;-64
2022/03/13 13:22:12;;;;;;;8.25;5.65;;;;;;;;;;5096174;28;20270;-64
2022/03/13 13:24:51;;;;;;;7.95;5.82;;;;;;;;;;5096328;28;20614;-64
2022/03/13 13:27:34;;;;;;;9.63;5.50;;;;;;;;;;5096195;28;20504;-64
2022/03/13 13:30:14;;;;;;;8.05;5.75;;;;;;;;;;5096477;28;20215;-64
2022/03/13 13:32:47;;;;;;;8.40;5.32;;;;;;;;;;5096221;28;20278;-64
2022/03/13 13:35:13;;;;;;;6.75;5.28;;;;;;;;;;5096061;28;20187;-64
2022/03/13 13:37:57;;;;;;;9.48;5.85;;;;;;;;;;5096188;28;20168;-64
2022/03/13 13:40:24;;;;;;;7.45;5.15;;;;;;;;;;5095912;28;20513;-64
2022/03/13 13:43:11;;;;;;;8.02;5.40;;;;;;;;;;5096003;28;20175;-64
2022/03/13 13:45:38;;;;;;;7.43;5.38;;;;;;;;;;5096224;28;20167;-64
2022/03/13 13:48:16;;;;;;;7.07;5.05;;;;;;;;;;5095916;28;20574;-63
2022/03/13 13:50:43;;;;;;;8.45;6.07;;;;;;;;;;5095774;28;20194;-64
2022/03/13 13:53:10;;;;;;;7.10;5.43;;;;;;;;;;5095880;28;20528;-63
2022/03/13 13:55:37;;;;;;;7.70;5.95;;;;;;;;;;5095962;28;20202;-64
2022/03/13 13:58:16;;;;;;;7.68;5.47;;;;;;;;;;5095962;28;20163;-64
2022/03/13 14:00:43;;;;;;;7.85;5.20;;;;;;;;;;5096842;28;20379;-64
2022/03/13 14:03:09;;;;;;;6.45;5.03;;;;;;;;;;5096253;28;20197;-64
2022/03/13 14:05:35;;;;;;;8.23;5.70;;;;;;;;;;5096333;28;20499;-64
2022/03/13 14:08:01;;;;;;;8.48;5.22;;;;;;;;;;5095449;28;20171;-64
2022/03/13 14:10:27;;;;;;;8.10;5.55;;;;;;;;;;5095482;28;20168;-64
2022/03/13 14:12:54;;;;;;;8.25;5.70;;;;;;;;;;5095398;28;20224;-64
2022/03/13 14:15:20;;;;;;;7.82;5.45;;;;;;;;;;5095413;28;20234;-65
2022/03/13 14:17:48;;;;;;;8.50;5.72;;;;;;;;;;5095044;28;20238;-64
2022/03/13 14:20:14;;;;;;;8.07;5.68;;;;;;;;;;5094332;28;20163;-64
2022/03/13 14:22:41;;;;;;;8.90;5.50;;;;;;;;;;5094923;28;20202;-65
2022/03/13 14:25:07;;;;;;;7.38;5.28;;;;;;;;;;5095547;28;20167;-63
2022/03/13 14:27:34;;;;;;;7.55;4.90;;;;;;;;;;5094965;28;20182;-64
2022/03/13 14:30:00;;;;;;;7.00;5.32;;;;;;;;;;5095190;28;20211;-63
2022/03/13 14:32:26;;;;;;;7.38;5.32;;;;;;;;;;5094691;28;20258;-63